Time;durP1;ratioP1;P1;durP2;ratioP2;P2;SDS_P1;SDS_P2;PMS_P1;PMS_P2;Temp;Humidity;BMP_temperature;BMP_pressure;BME280_temperature;BME280_humidity;BME280_pressure;Samples;Min_cycle;Max_cycle;Signal;HPM_P1;HPM_P2
2023/04/01 00:01:05;;;;;;;7.40;6.63;;;;;;;;;;4900223;29;20146;-88
2023/04/01 00:03:33;;;;;;;9.15;6.95;;;;;;;;;;4887482;29;20029;-85
2023/04/01 00:05:59;;;;;;;7.88;7.07;;;;;;;;;;4909927;29;20072;-87
2023/04/01 00:08:26;;;;;;;8.27;6.80;;;;;;;;;;4914977;29;20021;-86
2023/04/01 00:10:52;;;;;;;8.52;6.75;;;;;;;;;;4925252;29;20033;-81
2023/04/01 00:13:19;;;;;;;7.05;6.38;;;;;;;;;;4902962;29;20123;-83
2023/04/01 00:15:45;;;;;;;7.95;6.35;;;;;;;;;;4912567;29;20039;-85
2023/04/01 00:18:11;;;;;;;7.38;6.38;;;;;;;;;;4891117;29;20032;-86
2023/04/01 00:20:38;;;;;;;6.80;5.95;;;;;;;;;;4910286;29;20119;-84
2023/04/01 00:23:04;;;;;;;7.85;6.13;;;;;;;;;;4910803;29;20017;-85
2023/04/01 00:25:31;;;;;;;11.85;6.50;;;;;;;;;;4911347;29;20039;-83
2023/04/01 00:27:57;;;;;;;8.82;6.38;;;;;;;;;;4907978;29;20035;-85
2023/04/01 00:30:23;;;;;;;6.95;6.25;;;;;;;;;;4894772;29;20039;-83
2023/04/01 00:32:52;;;;;;;8.10;5.75;;;;;;;;;;4904769;29;20443;-83
2023/04/01 00:35:18;;;;;;;8.85;5.70;;;;;;;;;;4913901;29;20037;-83
2023/04/01 00:37:44;;;;;;;6.45;5.80;;;;;;;;;;4884673;29;20051;-83
2023/04/01 00:40:22;;;;;;;7.05;6.35;;;;;;;;;;4890364;29;20029;-84
2023/04/01 00:42:48;;;;;;;10.82;6.00;;;;;;;;;;4878459;29;20093;-83
2023/04/01 00:45:31;;;;;;;7.60;6.55;;;;;;;;;;4898530;29;20025;-83
2023/04/01 00:48:00;;;;;;;7.78;6.68;;;;;;;;;;4876919;29;20041;-84
2023/04/01 00:50:27;;;;;;;11.05;7.45;;;;;;;;;;4886088;29;20036;-83
2023/04/01 00:52:53;;;;;;;8.60;7.20;;;;;;;;;;4891091;29;20592;-82
2023/04/01 00:55:20;;;;;;;9.02;7.18;;;;;;;;;;4912309;29;20040;-82
2023/04/01 00:57:47;;;;;;;10.30;7.35;;;;;;;;;;4904382;29;20040;-81
2023/04/01 01:00:15;;;;;;;9.63;7.38;;;;;;;;;;4906869;29;20128;-81
2023/04/01 01:02:45;;;;;;;8.13;6.88;;;;;;;;;;4889490;29;20053;-82
2023/04/01 01:05:15;;;;;;;7.65;6.82;;;;;;;;;;4902405;29;20037;-84
2023/04/01 01:07:47;;;;;;;9.98;8.10;;;;;;;;;;4892434;29;20064;-84
2023/04/01 01:10:24;;;;;;;10.57;7.40;;;;;;;;;;4884722;29;20056;-84
2023/04/01 01:13:09;;;;;;;8.18;6.93;;;;;;;;;;4896102;29;20514;-82
2023/04/01 01:15:44;;;;;;;8.70;7.40;;;;;;;;;;4892853;29;20024;-82
2023/04/01 01:18:15;;;;;;;6.50;5.88;;;;;;;;;;4896468;29;20037;-85
2023/04/01 01:20:41;;;;;;;8.35;6.07;;;;;;;;;;4894994;29;20043;-84
2023/04/01 01:23:13;;;;;;;8.57;5.72;;;;;;;;;;4883844;29;20112;-88
2023/04/01 01:25:42;;;;;;;8.38;6.40;;;;;;;;;;4893174;29;20049;-85
2023/04/01 01:28:14;;;;;;;6.75;5.70;;;;;;;;;;4899859;29;20104;-84
2023/04/01 01:30:56;;;;;;;7.07;6.13;;;;;;;;;;4908319;29;20040;-83
2023/04/01 01:33:26;;;;;;;6.88;5.80;;;;;;;;;;4902326;29;20033;-84
2023/04/01 01:35:54;;;;;;;8.07;6.22;;;;;;;;;;4892843;29;20115;-84
2023/04/01 01:38:22;;;;;;;8.88;6.25;;;;;;;;;;4897211;29;20068;-85
2023/04/01 01:40:53;;;;;;;9.88;6.45;;;;;;;;;;4902501;29;20037;-84
2023/04/01 01:43:21;;;;;;;7.68;6.15;;;;;;;;;;4886039;29;20116;-84
2023/04/01 01:45:50;;;;;;;9.38;6.32;;;;;;;;;;4894017;29;20025;-84
2023/04/01 01:48:17;;;;;;;6.80;5.35;;;;;;;;;;4895189;29;20036;-84
2023/04/01 01:50:45;;;;;;;5.90;5.15;;;;;;;;;;4889215;29;20374;-85
2023/04/01 01:53:12;;;;;;;5.07;4.57;;;;;;;;;;4895259;29;20112;-84
2023/04/01 01:55:40;;;;;;;7.82;5.25;;;;;;;;;;4898093;29;20111;-85
2023/04/01 01:58:12;;;;;;;4.57;4.18;;;;;;;;;;4896185;29;20032;-87
2023/04/01 02:00:38;;;;;;;4.70;4.20;;;;;;;;;;4903345;29;20135;-83
2023/04/01 02:03:05;;;;;;;5.22;3.40;;;;;;;;;;4890840;29;20021;-84
2023/04/01 02:05:32;;;;;;;3.35;3.05;;;;;;;;;;4890626;29;20382;-86
2023/04/01 02:08:01;;;;;;;3.30;2.80;;;;;;;;;;4911801;29;20092;-86
2023/04/01 02:10:32;;;;;;;2.30;2.10;;;;;;;;;;4912570;29;20032;-86
2023/04/01 02:13:02;;;;;;;2.25;2.05;;;;;;;;;;4916140;29;20036;-85
2023/04/01 02:15:31;;;;;;;1.98;1.65;;;;;;;;;;4904935;29;20593;-83
2023/04/01 02:17:58;;;;;;;1.80;1.70;;;;;;;;;;4910136;29;20394;-83
2023/04/01 02:20:24;;;;;;;2.70;1.77;;;;;;;;;;4892377;29;20373;-82
2023/04/01 02:22:51;;;;;;;2.88;1.88;;;;;;;;;;4887496;29;20218;-83
2023/04/01 02:25:23;;;;;;;1.80;1.70;;;;;;;;;;4904255;29;20044;-83
2023/04/01 02:27:50;;;;;;;1.73;1.63;;;;;;;;;;4880775;29;20033;-83
2023/04/01 02:30:16;;;;;;;1.52;1.42;;;;;;;;;;4889185;29;20056;-83
2023/04/01 02:32:43;;;;;;;1.92;1.20;;;;;;;;;;4884894;29;20037;-83
2023/04/01 02:35:13;;;;;;;2.25;1.27;;;;;;;;;;4900610;29;20024;-84
2023/04/01 02:37:43;;;;;;;3.10;1.15;;;;;;;;;;4907962;29;20481;-84
2023/04/01 02:40:12;;;;;;;1.83;1.30;;;;;;;;;;4893416;29;20351;-84
2023/04/01 02:42:38;;;;;;;1.50;1.40;;;;;;;;;;4893613;29;20056;-84
2023/04/01 02:45:04;;;;;;;2.30;1.60;;;;;;;;;;4910338;29;20036;-83
2023/04/01 02:47:30;;;;;;;1.55;1.45;;;;;;;;;;4882859;29;20410;-81
2023/04/01 02:49:58;;;;;;;1.73;1.63;;;;;;;;;;4906499;29;20024;-82
2023/04/01 02:52:25;;;;;;;1.70;1.60;;;;;;;;;;4894715;29;20388;-82
2023/04/01 02:54:51;;;;;;;3.15;2.25;;;;;;;;;;4894717;29;20124;-81
2023/04/01 02:57:17;;;;;;;2.63;2.38;;;;;;;;;;4873419;29;20055;-82
2023/04/01 02:59:43;;;;;;;3.35;2.97;;;;;;;;;;4876084;29;20043;-82
2023/04/01 03:02:10;;;;;;;3.67;3.05;;;;;;;;;;4883145;29;20105;-84
2023/04/01 03:04:36;;;;;;;4.55;3.97;;;;;;;;;;4890935;29;20041;-79
2023/04/01 03:07:02;;;;;;;6.00;4.63;;;;;;;;;;4873633;29;20044;-87
2023/04/01 03:09:28;;;;;;;7.03;4.57;;;;;;;;;;4883572;29;20036;-86
2023/04/01 03:11:54;;;;;;;7.68;5.88;;;;;;;;;;4893468;29;20036;-84
2023/04/01 03:14:21;;;;;;;6.55;5.93;;;;;;;;;;4885704;29;20037;-82
2023/04/01 03:16:47;;;;;;;11.27;7.55;;;;;;;;;;4901587;29;20493;-82
2023/04/01 03:19:13;;;;;;;9.65;7.78;;;;;;;;;;4901066;29;20051;-82
2023/04/01 03:21:39;;;;;;;10.02;8.13;;;;;;;;;;4891798;29;20462;-82
2023/04/01 03:24:06;;;;;;;12.68;8.30;;;;;;;;;;4893101;29;20025;-83
2023/04/01 03:26:32;;;;;;;12.43;9.07;;;;;;;;;;4893865;29;20482;-82
2023/04/01 03:28:58;;;;;;;13.43;8.88;;;;;;;;;;4886687;29;20029;-82
2023/04/01 03:31:24;;;;;;;11.77;8.73;;;;;;;;;;4869222;29;20270;-82
2023/04/01 03:33:50;;;;;;;14.07;8.52;;;;;;;;;;4883498;29;20693;-81
2023/04/01 03:36:17;;;;;;;13.02;8.98;;;;;;;;;;4878525;29;20406;-81
2023/04/01 03:38:44;;;;;;;13.20;9.80;;;;;;;;;;4911570;29;20029;-82
2023/04/01 03:41:14;;;;;;;11.05;8.60;;;;;;;;;;4902355;29;20120;-83
2023/04/01 03:43:40;;;;;;;10.23;9.07;;;;;;;;;;4895293;29;20050;-84
2023/04/01 03:46:06;;;;;;;12.48;9.10;;;;;;;;;;4872461;29;20551;-85
2023/04/01 03:48:32;;;;;;;11.30;8.80;;;;;;;;;;4895129;29;20033;-82
2023/04/01 03:50:58;;;;;;;12.73;9.77;;;;;;;;;;4912081;29;20032;-81
2023/04/01 03:53:24;;;;;;;15.48;10.00;;;;;;;;;;4911846;29;20466;-82
2023/04/01 03:55:53;;;;;;;13.88;10.13;;;;;;;;;;4904821;29;20084;-82
2023/04/01 03:58:19;;;;;;;15.15;10.30;;;;;;;;;;4865786;29;20036;-82
2023/04/01 04:00:46;;;;;;;14.50;11.27;;;;;;;;;;4899878;29;20037;-82
2023/04/01 04:03:12;;;;;;;13.57;10.25;;;;;;;;;;4896720;29;20025;-82
2023/04/01 04:05:38;;;;;;;16.70;12.10;;;;;;;;;;4905420;29;20036;-83
2023/04/01 04:08:04;;;;;;;14.85;10.48;;;;;;;;;;4897413;29;20025;-86
2023/04/01 04:10:30;;;;;;;16.73;11.38;;;;;;;;;;4912772;29;20489;-84
2023/04/01 04:12:56;;;;;;;15.35;11.40;;;;;;;;;;4873387;29;20084;-82
2023/04/01 04:15:23;;;;;;;14.63;11.05;;;;;;;;;;4880226;29;20036;-81
2023/04/01 04:17:49;;;;;;;18.35;11.68;;;;;;;;;;4892165;29;20068;-80
2023/04/01 04:20:15;;;;;;;15.95;11.65;;;;;;;;;;4894951;29;20116;-84
2023/04/01 04:22:41;;;;;;;16.63;12.48;;;;;;;;;;4888545;29;20122;-82
2023/04/01 04:25:07;;;;;;;14.98;11.38;;;;;;;;;;4887166;29;20033;-84
2023/04/01 04:27:33;;;;;;;17.13;11.55;;;;;;;;;;4892393;29;20036;-82
2023/04/01 04:29:59;;;;;;;16.80;11.73;;;;;;;;;;4866820;29;20037;-83
2023/04/01 04:32:26;;;;;;;15.38;11.10;;;;;;;;;;4896175;29;20032;-79
2023/04/01 04:34:52;;;;;;;13.65;10.70;;;;;;;;;;4875335;29;20044;-82
2023/04/01 04:37:18;;;;;;;17.67;11.75;;;;;;;;;;4901170;29;20043;-83
2023/04/01 04:39:44;;;;;;;16.88;12.38;;;;;;;;;;4894361;29;20131;-83
2023/04/01 04:42:10;;;;;;;15.57;12.25;;;;;;;;;;4912347;29;20028;-84
2023/04/01 04:44:36;;;;;;;15.85;12.70;;;;;;;;;;4906027;29;20029;-82
2023/04/01 04:47:02;;;;;;;16.90;13.13;;;;;;;;;;4906799;29;20036;-82
2023/04/01 04:49:28;;;;;;;21.52;12.30;;;;;;;;;;4905546;29;20028;-82
2023/04/01 04:51:54;;;;;;;18.55;12.85;;;;;;;;;;4896542;29;20028;-80
2023/04/01 04:54:20;;;;;;;16.13;12.85;;;;;;;;;;4891054;29;20025;-80
2023/04/01 04:56:46;;;;;;;17.85;12.75;;;;;;;;;;4893573;29;20124;-84
2023/04/01 04:59:12;;;;;;;16.40;12.93;;;;;;;;;;4910450;29;20541;-84
2023/04/01 05:01:38;;;;;;;16.33;12.60;;;;;;;;;;4880343;29;20076;-83
2023/04/01 05:04:05;;;;;;;17.83;13.75;;;;;;;;;;4889610;29;20035;-82
2023/04/01 05:06:31;;;;;;;17.67;13.18;;;;;;;;;;4862618;29;20071;-84
2023/04/01 05:08:57;;;;;;;17.52;13.73;;;;;;;;;;4890709;29;20033;-85
2023/04/01 05:11:25;;;;;;;27.92;14.00;;;;;;;;;;4903879;29;20028;-83
2023/04/01 05:13:52;;;;;;;19.23;14.60;;;;;;;;;;4884364;29;20060;-82
2023/04/01 05:16:19;;;;;;;22.05;14.23;;;;;;;;;;4866834;29;20490;-81
2023/04/01 05:18:45;;;;;;;17.88;14.38;;;;;;;;;;4904759;29;20084;-82
2023/04/01 05:21:12;;;;;;;22.30;15.45;;;;;;;;;;4892060;29;20033;-86
2023/04/01 05:23:39;;;;;;;19.67;14.10;;;;;;;;;;4889897;29;20482;-81
2023/04/01 05:26:08;;;;;;;20.02;14.23;;;;;;;;;;4904117;29;20029;-85
2023/04/01 05:28:38;;;;;;;22.65;14.70;;;;;;;;;;4891846;29;20065;-81
2023/04/01 05:31:04;;;;;;;24.13;15.57;;;;;;;;;;4886170;29;20032;-83
2023/04/01 05:33:30;;;;;;;20.00;14.70;;;;;;;;;;4894588;29;20146;-83
2023/04/01 05:35:57;;;;;;;22.20;15.50;;;;;;;;;;4893373;29;20457;-83
2023/04/01 05:38:23;;;;;;;20.75;15.45;;;;;;;;;;4905950;29;20042;-85
2023/04/01 05:40:49;;;;;;;21.15;15.07;;;;;;;;;;4904958;29;20064;-83
2023/04/01 05:43:15;;;;;;;22.17;14.80;;;;;;;;;;4903171;29;20541;-83
2023/04/01 05:45:41;;;;;;;20.50;15.45;;;;;;;;;;4887217;29;20383;-85
2023/04/01 05:48:07;;;;;;;22.55;15.82;;;;;;;;;;4896810;29;20180;-88
2023/04/01 05:50:33;;;;;;;26.92;16.02;;;;;;;;;;4882016;29;20040;-86
2023/04/01 05:52:59;;;;;;;20.35;14.70;;;;;;;;;;4890434;29;20434;-87
2023/04/01 05:55:25;;;;;;;22.13;14.70;;;;;;;;;;4893743;29;20422;-79
2023/04/01 05:57:52;;;;;;;23.85;15.88;;;;;;;;;;4876880;29;20043;-82
2023/04/01 06:00:19;;;;;;;24.20;14.73;;;;;;;;;;4891201;29;20501;-80
2023/04/01 06:02:46;;;;;;;24.60;16.17;;;;;;;;;;4888436;29;20056;-83
2023/04/01 06:05:13;;;;;;;24.15;15.63;;;;;;;;;;4875190;29;20478;-84
2023/04/01 06:07:39;;;;;;;23.20;15.43;;;;;;;;;;4906976;29;20036;-84
2023/04/01 06:10:16;;;;;;;24.38;16.30;;;;;;;;;;4882299;29;20124;-82
2023/04/01 06:12:50;;;;;;;25.50;16.48;;;;;;;;;;4888972;29;20438;-82
2023/04/01 06:15:34;;;;;;;24.42;15.80;;;;;;;;;;4878131;29;20044;-80
2023/04/01 06:18:12;;;;;;;35.95;17.00;;;;;;;;;;4884284;29;20177;-80
2023/04/01 06:20:50;;;;;;;24.58;17.05;;;;;;;;;;4894074;29;20511;-87
2023/04/01 06:23:16;;;;;;;26.58;16.80;;;;;;;;;;4892136;29;20032;-85
2023/04/01 06:25:51;;;;;;;26.52;16.75;;;;;;;;;;4902192;29;20036;-83
2023/04/01 06:28:29;;;;;;;25.63;16.52;;;;;;;;;;4908218;29;20512;-83
2023/04/01 06:31:14;;;;;;;24.90;15.55;;;;;;;;;;4886621;29;20084;-83
2023/04/01 06:33:51;;;;;;;22.10;14.80;;;;;;;;;;4880118;29;20033;-86
2023/04/01 06:36:26;;;;;;;24.75;15.82;;;;;;;;;;4883713;29;20055;-83
2023/04/01 06:39:11;;;;;;;21.70;15.00;;;;;;;;;;4889604;29;20032;-86
2023/04/01 06:41:43;;;;;;;23.02;15.10;;;;;;;;;;4904167;29;20068;-85
2023/04/01 06:44:12;;;;;;;22.67;14.35;;;;;;;;;;4893321;29;20044;-84
2023/04/01 06:46:52;;;;;;;18.60;13.40;;;;;;;;;;4892006;29;20155;-83
2023/04/01 06:49:26;;;;;;;18.27;11.38;;;;;;;;;;4886299;29;20037;-83
2023/04/01 06:51:55;;;;;;;19.05;12.98;;;;;;;;;;4877270;29;20072;-78
2023/04/01 06:54:25;;;;;;;18.10;12.45;;;;;;;;;;4881550;29;20045;-78
2023/04/01 06:56:55;;;;;;;17.02;11.88;;;;;;;;;;4893008;29;20045;-80
2023/04/01 06:59:25;;;;;;;22.02;11.77;;;;;;;;;;4890073;29;20025;-78
2023/04/01 07:02:04;;;;;;;19.98;11.02;;;;;;;;;;4891977;29;20415;-78
2023/04/01 07:04:32;;;;;;;16.15;11.48;;;;;;;;;;4882795;29;20366;-77
2023/04/01 07:07:16;;;;;;;15.32;10.07;;;;;;;;;;4885052;29;20048;-82
2023/04/01 07:09:48;;;;;;;16.42;10.25;;;;;;;;;;4905617;29;20040;-77
2023/04/01 07:12:24;;;;;;;13.40;9.82;;;;;;;;;;4891979;29;20065;-79
2023/04/01 07:14:50;;;;;;;11.45;9.13;;;;;;;;;;4897040;29;20475;-79
2023/04/01 07:17:26;;;;;;;9.48;7.97;;;;;;;;;;4903878;29;20033;-79
2023/04/01 07:20:10;;;;;;;11.52;8.85;;;10.40;99.90;;;;;;4889808;29;20485;-77
2023/04/01 07:22:39;;;;;;;9.60;8.25;;;;;;;;;;4912669;29;20032;-81
2023/04/01 07:25:13;;;;;;;11.63;7.95;;;;;;;;;;4887795;29;20021;-80
2023/04/01 07:27:39;;;;;;;12.88;9.75;;;;;;;;;;4892618;29;20086;-79
2023/04/01 07:30:16;;;;;;;12.98;8.23;;;;;;;;;;4881711;29;20510;-78
2023/04/01 07:32:52;;;;;;;11.52;9.15;;;;;;;;;;4897154;29;20037;-81
2023/04/01 07:35:38;;;;;;;13.05;9.35;;;;;;;;;;4900767;29;20434;-80
2023/04/01 07:38:10;;;;;;;13.82;10.07;;;;;;;;;;4895420;29;20045;-81
2023/04/01 07:40:40;;;;;;;15.38;11.23;;;;;;;;;;4886350;29;20115;-80
2023/04/01 07:43:25;;;;;;;14.25;11.02;;;;;;;;;;4891046;29;20051;-80
2023/04/01 07:45:51;;;;;;;14.88;11.70;;;;;;;;;;4903944;29;20045;-78
2023/04/01 07:48:31;;;;;;;13.10;11.15;;;;;;;;;;4901894;29;20079;-78
2023/04/01 07:51:16;;;;;;;16.95;13.57;;;;;;;;;;4897294;29;20394;-77
2023/04/01 07:53:50;;;;;;;21.20;14.32;;;;;;;;;;4891377;29;20052;-77
2023/04/01 07:56:19;;;;;;;18.55;13.77;;;;;;;;;;4888721;29;20045;-77
2023/04/01 07:58:45;;;;;;;18.80;15.00;;;;;;;;;;4910144;29;20512;-79
2023/04/01 08:01:26;;;;;;;18.52;14.82;;;;;;;;;;4909835;29;20131;-82
2023/04/01 08:03:52;;;;;;;20.33;14.68;;;;;;;;;;4893639;29;20037;-82
2023/04/01 08:06:41;;;;;;;17.45;14.15;;;;;;;;;;4884744;29;20043;-79
2023/04/01 08:09:23;;;;;;;16.23;13.85;;;;;;;;;;4887579;29;20482;-76
2023/04/01 08:11:52;;;;;;;16.05;14.25;;;;;;;;;;4902906;29;20033;-82
2023/04/01 08:14:24;;;;;;;18.48;13.40;;;;;;;;;;4884957;29;20056;-80
2023/04/01 08:16:56;;;;;;;14.68;13.13;;;;;;;;;;4901374;29;20045;-80
2023/04/01 08:19:41;;;;;;;15.07;13.48;;;;;;;;;;4883735;29;20123;-79
2023/04/01 08:22:20;;;;;;;16.65;14.77;;;;;;;;;;4890084;29;20113;-76
2023/04/01 08:24:59;;;;;;;18.63;16.05;;;;;;;;;;4888740;29;20040;-80
2023/04/01 08:27:29;;;;;;;21.17;15.90;;;;;;;;;;4907780;29;20487;-78
2023/04/01 08:30:18;;;;;;;23.73;17.95;;;;;;;;;;4902220;29;20506;-79
2023/04/01 08:33:03;;;;;;;21.08;16.70;;;;;;;;;;4905319;29;20033;-79
2023/04/01 08:35:32;;;;;;;16.65;14.45;;;;;;;;;;4892347;29;20044;-79
2023/04/01 08:38:02;;;;;;;16.20;14.35;;;;;;;;;;4900341;29;20037;-79
2023/04/01 08:40:34;;;;;;;17.52;14.85;;;;;;;;;;4878862;29;20040;-79
2023/04/01 08:43:18;;;;;;;12.93;11.63;;;;;;;;;;4897691;29;20029;-83
2023/04/01 08:45:44;;;;;;;13.07;11.48;;;;;;;;;;4886664;29;20072;-82
2023/04/01 08:48:29;;;;;;;13.55;11.35;;;;;;;;;;4912615;29;20457;-83
2023/04/01 08:51:08;;;;;;;12.05;10.85;;;;;;;;;;4900341;29;20037;-80
2023/04/01 08:53:53;;;;;;;14.00;11.35;;;;;;;;;;4895785;29;20115;-80
2023/04/01 08:56:22;;;;;;;14.25;12.32;;;;;;;;;;4904814;29;20131;-80
2023/04/01 08:58:57;;;;;;;12.38;11.18;;;;;;;;;;4892139;29;20033;-80
2023/04/01 09:01:42;;;;;;;13.00;10.93;;;;;;;;;;4880881;29;20053;-80
2023/04/01 09:04:08;;;;;;;14.90;12.40;;;;;;;;;;4893026;29;20386;-82
2023/04/01 09:07:07;;;;;;;13.25;11.82;;;;;;;;;;4895157;29;20168;-80
2023/04/01 09:09:48;;;;;;;12.68;11.38;;;;;;;;;;4904529;29;20181;-80
2023/04/01 09:12:28;;;;;;;13.70;12.30;;;;;;;;;;4890201;29;20032;-81
2023/04/01 09:15:13;;;;;;;13.77;12.38;;;;;;;;;;4911040;29;20025;-81
2023/04/01 09:17:45;;;;;;;17.45;13.57;;;;;;;;;;4893485;29;20044;-80
2023/04/01 09:20:14;;;;;;;16.63;13.07;;;;;;;;;;4890003;29;20178;-80
2023/04/01 09:22:52;;;;;;;17.88;14.48;;;;;;;;;;4909107;29;20032;-80
2023/04/01 09:25:21;;;;;;;15.65;14.02;;;;;;;;;;4909817;29;20063;-80
2023/04/01 09:27:47;;;;;;;15.57;13.98;;;;;;;;;;4882061;29;20417;-80
2023/04/01 09:30:34;;;;;;;16.95;14.02;;;;;;;;;;4894960;29;20064;-81
2023/04/01 09:33:00;;;;;;;15.15;13.05;;;;;;;;;;4888311;29;20032;-80
2023/04/01 09:35:39;;;;;;;15.80;12.73;;;;;;;;;;4907943;29;20031;-80
2023/04/01 09:38:20;;;;;;;15.30;12.45;;;;;;;;;;4891972;29;20040;-80
2023/04/01 09:40:48;;;;;;;13.20;11.80;;;;;;;;;;4892768;29;20063;-81
2023/04/01 09:43:26;;;;;;;13.38;11.98;;;;;;;;;;4894421;29;20443;-81
2023/04/01 09:46:04;;;;;;;13.52;12.13;;;;;;;;;;4890142;29;20397;-80
2023/04/01 09:48:37;;;;;;;10.48;9.48;;;;;;;;;;4889256;29;20069;-80
2023/04/01 09:51:21;;;;;;;11.15;9.75;;;;;;;;;;4897790;29;20487;-81
2023/04/01 09:53:54;;;;;;;11.23;9.38;;;;;;;;;;4879548;29;20039;-82
2023/04/01 09:56:38;;;;;;;9.90;8.85;;;;;;;;;;4903020;29;20040;-79
2023/04/01 09:59:13;;;;;;;9.93;8.57;;;;;;;;;;4892084;29;20033;-83
2023/04/01 10:01:52;;;;;;;8.27;7.38;;;;;;;;;;4901414;29;20120;-82
2023/04/01 10:04:24;;;;;;;9.63;8.25;;;;;;;;;;4900827;29;20048;-83
2023/04/01 10:07:09;;;;;;;8.60;7.20;;;;;;;;;;4892055;29;20075;-84
2023/04/01 10:09:54;;;;;;;8.15;7.35;;;;;;;;;;4888819;29;20085;-82
2023/04/01 10:12:31;;;;;;;7.05;6.35;;;;;;;;;;4891345;29;20039;-83
2023/04/01 10:15:16;;;;;;;7.25;6.30;;;;;;;;;;4895949;29;20033;-82
2023/04/01 10:17:57;;;;;;;7.15;6.30;;;;;;;;;;4886239;29;20052;-82
2023/04/01 10:20:52;;;;;;;7.00;5.65;;;;;;;;;;4880683;29;20043;-80
2023/04/01 10:23:26;;;;;;;5.88;5.30;;;;;;;;;;4891268;29;20068;-79
2023/04/01 10:25:51;;;;;;;5.85;5.10;;;;;;;;;;4893166;29;20105;-81
2023/04/01 10:28:50;;;;;;;5.72;5.18;;;;;;;;;;4888318;29;20096;-82
2023/04/01 10:31:23;;;;;;;6.10;5.13;;;;;;;;;;4892397;29;20040;-81
2023/04/01 10:34:03;;;;;;;6.28;5.22;;;;;;;;;;4896949;29;20032;-82
2023/04/01 10:36:39;;;;;;;6.28;4.85;;;;;;;;;;4901756;29;20037;-82
2023/04/01 10:39:33;;;;;;;8.13;4.88;;;;;;;;;;4910702;29;20504;-83
2023/04/01 10:41:59;;;;;;;5.90;4.60;;;;;;;;;;4880206;29;20031;-83
2023/04/01 10:44:49;;;;;;;5.28;4.78;;;;;;;;;;4896631;29;20119;-82
2023/04/01 10:47:36;;;;;;;4.97;4.00;;;;;;;;;;4882521;29;20037;-85
2023/04/01 10:50:09;;;;;;;6.07;4.25;;;;;;;;;;4902837;29;20036;-85
2023/04/01 10:52:42;;;;;;;6.03;4.32;;;;;;;;;;4901054;29;20025;-83
2023/04/01 10:55:26;;;;;;;4.53;4.07;;;10.90;99.90;;;;;;4901465;29;20028;-82
2023/04/01 10:58:12;;;;;;;6.40;4.22;;;;;;;;;;4885024;29;20044;-81
2023/04/01 11:00:41;;;;;;;6.05;4.13;;;;;;;;;;4880007;29;20482;-81
2023/04/01 11:03:26;;;;;;;5.90;3.47;;;;;;;;;;4889465;29;20057;-83
2023/04/01 11:05:52;;;;;;;7.32;3.97;;;;;;;;;;4895467;29;20029;-84
2023/04/01 11:08:29;;;;;;;6.57;4.10;;;;;;;;;;4890426;29;20033;-81
2023/04/01 11:10:58;;;;;;;4.93;3.95;;;;;;;;;;4890294;29;20047;-82
2023/04/01 11:13:43;;;;;;;7.32;4.82;;;;;;;;;;4896843;29;20058;-83
2023/04/01 11:16:19;;;;;;;7.50;4.85;;;;;;;;;;4885887;29;20021;-83
2023/04/01 11:18:51;;;;;;;9.60;4.15;;;;;;;;;;4888414;29;20028;-83
2023/04/01 11:21:53;;;;;;;5.25;3.92;;;;;;;;;;4893911;29;20035;-83
2023/04/01 11:24:24;;;;;;;5.20;3.75;;;;;;;;;;4864846;29;20510;-82
2023/04/01 11:26:57;;;;;;;6.57;3.45;;;;;;;;;;4883775;29;20275;-83
2023/04/01 11:29:47;;;;;;;7.13;3.00;;;;;;;;;;4894190;29;20426;-83
2023/04/01 11:32:25;;;;;;;4.68;2.88;;;;;;;;;;4894403;29;20516;-83
2023/04/01 11:35:08;;;;;;;3.00;2.70;;;;;;;;;;4909960;29;20123;-83
2023/04/01 11:37:53;;;;;;;2.47;2.28;;;;;;;;;;4892897;29;20032;-82
2023/04/01 11:40:40;;;;;;;2.83;2.22;;;;;;;;;;4893987;29;20394;-83
2023/04/01 11:43:12;;;;;;;4.43;2.50;;;;;;;;;;4879020;29;20056;-84
2023/04/01 11:45:52;;;;;;;2.50;2.28;;;;;;;;;;4894193;29;20456;-82
2023/04/01 11:48:25;;;;;;;3.42;2.33;;;;;;;;;;4878817;29;20037;-83
2023/04/01 11:51:06;;;;;;;3.58;2.60;;;;;;;;;;4897648;29;20068;-83
2023/04/01 11:53:58;;;;;;;3.67;2.10;;;;;;;;;;4877837;29;20045;-82
2023/04/01 11:56:36;;;;;;;2.67;2.00;;;;;;;;;;4903933;29;20056;-83
2023/04/01 11:59:12;;;;;;;2.33;2.13;;;;;;;;;;4884762;29;20188;-83
2023/04/01 12:01:41;;;;;;;2.78;2.15;;;;;;;;;;4910226;29;20505;-84
2023/04/01 12:04:33;;;;;;;3.17;2.20;;;;;;;;;;4894560;29;20043;-84
2023/04/01 12:11:03;;;;;;;3.83;1.88;;;;;;;;;;4875200;29;20037;-83
2023/04/01 12:13:46;;;;;;;;;;;;;;;;;;;;;
2023/04/01 12:16:15;;;;;;;3.67;1.92;;;;;;;;;;4914972;29;20032;-83
2023/04/01 12:18:47;;;;;;;2.53;1.95;;;;;;;;;;4893781;29;20035;-82
2023/04/01 12:21:16;;;;;;;2.95;2.00;;;;;;;;;;4914720;29;20394;-83
2023/04/01 12:23:47;;;;;;;3.63;2.55;;;;;;;;;;4886377;29;20036;-83
2023/04/01 12:26:16;;;;;;;3.67;1.95;;;;;;;;;;4895540;29;20045;-83
2023/04/01 12:28:45;;;;;;;3.88;2.55;;;;;;;;;;4912461;29;20450;-82
2023/04/01 12:31:32;;;;;;;2.90;2.05;;;;;;;;;;4894756;29;20025;-83
2023/04/01 12:34:17;;;;;;;2.45;1.88;;;;;;;;;;4884759;29;20479;-82
2023/04/01 12:36:46;;;;;;;5.10;1.85;;;;;;;;;;4882594;29;20064;-83
2023/04/01 12:39:28;;;;;;;3.13;1.90;;;;;;;;;;4912771;29;20029;-83
2023/04/01 12:42:00;;;;;;;2.65;1.88;;;;;;;;;;4891697;29;20025;-83
2023/04/01 12:44:44;;;;;;;4.57;1.60;;;;;;;;;;4878359;29;20032;-83
2023/04/01 12:47:31;;;;;;;2.83;1.67;;;;;;;;;;4906281;29;20028;-84
2023/04/01 12:49:57;;;;;;;2.70;1.98;;;;;;;;;;4894080;29;20037;-82
2023/04/01 12:52:48;;;;;;;4.30;2.03;;;;;;;;;;4908784;29;20031;-83
2023/04/01 12:55:37;;;;;;;3.20;1.80;;;;;;;;;;4909078;29;20059;-83
2023/04/01 12:58:17;;;;;;;2.00;1.80;;;;;;;;;;4876597;29;20144;-83
2023/04/01 13:00:55;;;;;;;2.95;1.50;;;;;;;;;;4893117;29;20038;-83
2023/04/01 13:03:40;;;;;;;2.50;1.73;;;;;;;;;;4892941;29;20151;-83
2023/04/01 13:06:28;;;;;;;2.17;1.77;;;;;;;;;;4891764;29;20088;-84
2023/04/01 13:09:19;;;;;;;2.30;1.98;;;;;;;;;;4892157;29;20045;-84
2023/04/01 13:12:04;;;;;;;5.35;1.85;;;;;;;;;;4901653;29;20044;-83
2023/04/01 13:14:36;;;;;;;3.75;2.20;;;;;;;;;;4882858;29;20064;-82
2023/04/01 13:17:17;;;;;;;2.35;1.70;;;;;;;;;;4908900;29;20470;-83
2023/04/01 13:20:04;;;;;;;1.92;1.60;;;;;;;;;;4911871;29;20056;-83
2023/04/01 13:22:56;;;;;;;2.78;1.80;;;;;;;;;;4892306;29;20044;-80
2023/04/01 13:28:54;;;;;;;3.95;1.63;;;;;;;;;;4930540;29;20062;-80
2023/04/01 13:31:56;;;;;;;2.92;2.05;;;;;;;;;;4913854;29;20040;-82
2023/04/01 13:34:55;;;;;;;1.80;1.63;;;;;;;;;;4915793;29;20036;-82
2023/04/01 13:37:55;;;;;;;1.75;1.60;;;;;;;;;;4902764;29;20116;-81
2023/04/01 13:41:12;;;;;;;2.47;1.73;;;10.90;99.90;;;;;;4889684;29;20040;-81
2023/04/01 13:44:16;;;;;;;4.82;1.70;;;;;;;;;;4881804;29;20049;-81
2023/04/01 13:47:20;;;;;;;2.92;1.70;;;;;;;;;;4880036;29;20172;-81
2023/04/01 13:50:02;;;;;;;3.08;1.38;;;;;;;;;;4883112;29;20036;-81
2023/04/01 13:56:02;;;;;;;2.45;1.60;;;;;;;;;;4895497;29;20120;-81
2023/04/01 13:58:50;;;;;;;1.60;1.50;;;;;;;;;;4885485;29;20394;-82
2023/04/01 14:01:25;;;;;;;2.25;1.70;;;;;;;;;;4909705;29;20040;-81
2023/04/01 14:04:00;;;;;;;3.05;1.98;;;;;;;;;;4889127;29;20099;-82
2023/04/01 14:15:42;;;;;;;2.50;1.55;;;;;;;;;;4884637;29;20498;-81
2023/04/01 14:18:17;;;;;;;1.83;1.20;;;;;;;;;;4902098;29;20037;-81
2023/04/01 14:21:09;;;;;;;2.20;1.30;;;10.60;99.90;;;;;;4908615;29;20032;-82
2023/04/01 14:23:54;;;;;;;1.77;1.17;;;;;;;;;;4894274;29;20036;-80
2023/04/01 14:26:54;;;;;;;1.70;1.60;;;;;;;;;;4909719;29;20035;-80
2023/04/01 14:29:26;;;;;;;2.47;1.52;;;;;;;;;;4907463;29;20105;-81
2023/04/01 14:31:56;;;;;;;4.90;1.23;;;;;;;;;;4910973;29;20382;-81
2023/04/01 14:34:40;;;;;;;2.60;1.70;;;;;;;;;;4879725;29;20352;-81
2023/04/01 14:37:15;;;;;;;1.35;1.10;;;;;;;;;;4895835;29;20044;-81
2023/04/01 14:40:03;;;;;;;2.10;1.10;;;;;;;;;;4876011;29;20036;-80
2023/04/01 14:42:29;;;;;;;2.38;1.30;;;;;;;;;;4909917;29;20474;-80
2023/04/01 14:45:14;;;;;;;1.95;1.38;;;;;;;;;;4889280;29;20144;-80
2023/04/01 14:47:53;;;;;;;2.72;1.25;;;;;;;;;;4879983;29;20048;-81
2023/04/01 14:50:19;;;;;;;1.45;1.33;;;;;;;;;;4909357;29;20500;-81
2023/04/01 14:53:15;;;;;;;1.00;0.90;;;;;;;;;;4892019;29;20025;-80
2023/04/01 14:56:02;;;;;;;3.50;1.25;;;;;;;;;;4902691;29;20045;-80
2023/04/01 14:59:01;;;;;;;1.08;0.95;;;;;;;;;;4870479;29;20443;-81
2023/04/01 15:08:07;;;;;;;1.55;1.00;;;;;;;;;;4894573;29;20095;-82
2023/04/01 15:11:01;;;;;;;2.05;0.77;;;;;;;;;;4887716;29;20044;-81
2023/04/01 15:13:32;;;;;;;3.30;1.20;;;;;;;;;;4901901;29;20033;-81
2023/04/01 15:16:01;;;;;;;2.95;1.20;;;;;;;;;;4904893;29;20075;-80
2023/04/01 15:18:31;;;;;;;1.65;1.10;;;;;;;;;;4901979;29;20041;-80
2023/04/01 15:21:06;;;;;;;2.88;1.15;;;;;;;;;;4894680;29;20032;-81
2023/04/01 15:23:32;;;;;;;2.75;1.70;;;;;;;;;;4889650;29;20029;-79
2023/04/01 15:26:14;;;;;;;2.85;1.88;;;;;;;;;;4903932;29;20047;-81
2023/04/01 15:28:43;;;;;;;6.65;2.78;;;;;;;;;;4901370;29;20033;-79
2023/04/01 15:31:34;;;;;;;2.45;1.25;;;;;;;;;;4902889;29;20367;-81
2023/04/01 15:34:08;;;;;;;3.22;1.50;;;;;;;;;;4885193;29;20033;-81
2023/04/01 15:36:55;;;;;;;3.33;1.55;;;;;;;;;;4894807;29;20056;-81